sensor_id;sensor_type;location;lat;lon;timestamp;P1;durP1;ratioP1;P2;durP2;ratioP2
16181;SDS011;8197;51.664;7.114;2024-03-02T00:03:23;14.00;;;1.73;;
16181;SDS011;8197;51.664;7.114;2024-03-02T00:08:27;12.60;;;1.43;;
16181;SDS011;8197;51.664;7.114;2024-03-02T00:13:31;17.47;;;2.13;;
16181;SDS011;8197;51.664;7.114;2024-03-02T00:18:36;13.57;;;1.50;;
16181;SDS011;8197;51.664;7.114;2024-03-02T00:23:41;15.27;;;1.87;;
16181;SDS011;8197;51.664;7.114;2024-03-02T00:28:44;13.40;;;1.87;;
16181;SDS011;8197;51.664;7.114;2024-03-02T00:33:47;13.80;;;2.37;;
16181;SDS011;8197;51.664;7.114;2024-03-02T00:38:53;14.00;;;1.80;;
16181;SDS011;8197;51.664;7.114;2024-03-02T00:43:58;16.83;;;1.63;;
16181;SDS011;8197;51.664;7.114;2024-03-02T00:49:02;12.60;;;1.77;;
16181;SDS011;8197;51.664;7.114;2024-03-02T00:54:08;13.60;;;1.60;;
16181;SDS011;8197;51.664;7.114;2024-03-02T00:59:13;12.07;;;1.50;;
16181;SDS011;8197;51.664;7.114;2024-03-02T01:04:15;12.40;;;1.90;;
16181;SDS011;8197;51.664;7.114;2024-03-02T01:09:20;12.70;;;1.83;;
16181;SDS011;8197;51.664;7.114;2024-03-02T01:14:23;13.47;;;1.73;;
16181;SDS011;8197;51.664;7.114;2024-03-02T01:19:26;12.87;;;1.53;;
16181;SDS011;8197;51.664;7.114;2024-03-02T01:24:30;13.03;;;1.50;;
16181;SDS011;8197;51.664;7.114;2024-03-02T01:29:33;12.30;;;1.70;;
16181;SDS011;8197;51.664;7.114;2024-03-02T01:34:36;12.33;;;1.10;;
16181;SDS011;8197;51.664;7.114;2024-03-02T01:39:40;13.37;;;1.40;;
16181;SDS011;8197;51.664;7.114;2024-03-02T01:44:43;13.03;;;1.83;;
16181;SDS011;8197;51.664;7.114;2024-03-02T01:49:46;13.03;;;1.50;;
16181;SDS011;8197;51.664;7.114;2024-03-02T01:54:51;12.70;;;1.40;;
16181;SDS011;8197;51.664;7.114;2024-03-02T01:59:54;14.03;;;1.60;;
16181;SDS011;8197;51.664;7.114;2024-03-02T02:04:56;14.53;;;1.57;;
16181;SDS011;8197;51.664;7.114;2024-03-02T02:10:01;15.13;;;1.90;;
16181;SDS011;8197;51.664;7.114;2024-03-02T02:15:14;12.50;;;1.30;;
16181;SDS011;8197;51.664;7.114;2024-03-02T02:20:24;13.63;;;1.40;;
16181;SDS011;8197;51.664;7.114;2024-03-02T02:25:29;15.13;;;1.50;;
16181;SDS011;8197;51.664;7.114;2024-03-02T02:30:32;20.30;;;1.40;;
16181;SDS011;8197;51.664;7.114;2024-03-02T02:35:37;12.30;;;1.33;;
16181;SDS011;8197;51.664;7.114;2024-03-02T02:40:43;12.93;;;1.40;;
16181;SDS011;8197;51.664;7.114;2024-03-02T02:45:48;11.70;;;1.30;;
16181;SDS011;8197;51.664;7.114;2024-03-02T02:50:51;12.10;;;1.37;;
16181;SDS011;8197;51.664;7.114;2024-03-02T02:55:55;13.43;;;1.50;;
16181;SDS011;8197;51.664;7.114;2024-03-02T03:00:58;11.90;;;1.40;;
16181;SDS011;8197;51.664;7.114;2024-03-02T03:06:01;11.70;;;1.27;;
16181;SDS011;8197;51.664;7.114;2024-03-02T03:11:05;14.00;;;1.60;;
16181;SDS011;8197;51.664;7.114;2024-03-02T03:16:08;12.40;;;1.23;;
16181;SDS011;8197;51.664;7.114;2024-03-02T03:21:11;12.00;;;1.20;;
16181;SDS011;8197;51.664;7.114;2024-03-02T03:26:16;12.63;;;1.30;;
16181;SDS011;8197;51.664;7.114;2024-03-02T03:31:19;16.10;;;1.63;;
16181;SDS011;8197;51.664;7.114;2024-03-02T03:36:22;11.77;;;1.20;;
16181;SDS011;8197;51.664;7.114;2024-03-02T03:41:26;13.53;;;1.47;;
16181;SDS011;8197;51.664;7.114;2024-03-02T03:46:29;12.30;;;1.43;;
16181;SDS011;8197;51.664;7.114;2024-03-02T03:51:32;15.90;;;1.57;;
16181;SDS011;8197;51.664;7.114;2024-03-02T03:56:36;13.67;;;1.30;;
16181;SDS011;8197;51.664;7.114;2024-03-02T04:01:39;13.20;;;1.13;;
16181;SDS011;8197;51.664;7.114;2024-03-02T04:06:45;12.13;;;1.30;;
16181;SDS011;8197;51.664;7.114;2024-03-02T04:11:49;11.97;;;1.23;;
16181;SDS011;8197;51.664;7.114;2024-03-02T04:16:52;12.33;;;1.50;;
16181;SDS011;8197;51.664;7.114;2024-03-02T04:21:55;12.10;;;1.10;;
16181;SDS011;8197;51.664;7.114;2024-03-02T04:27:03;13.20;;;1.27;;
16181;SDS011;8197;51.664;7.114;2024-03-02T04:32:06;11.70;;;1.17;;
16181;SDS011;8197;51.664;7.114;2024-03-02T04:37:10;13.60;;;1.50;;
16181;SDS011;8197;51.664;7.114;2024-03-02T04:42:16;12.30;;;1.10;;
16181;SDS011;8197;51.664;7.114;2024-03-02T04:47:19;14.80;;;1.60;;
16181;SDS011;8197;51.664;7.114;2024-03-02T04:52:22;12.87;;;1.50;;
16181;SDS011;8197;51.664;7.114;2024-03-02T04:57:26;17.07;;;1.70;;
16181;SDS011;8197;51.664;7.114;2024-03-02T05:02:29;25.13;;;1.57;;
16181;SDS011;8197;51.664;7.114;2024-03-02T05:07:32;13.83;;;1.43;;
16181;SDS011;8197;51.664;7.114;2024-03-02T05:12:37;12.53;;;1.30;;
16181;SDS011;8197;51.664;7.114;2024-03-02T05:17:58;13.20;;;1.50;;
16181;SDS011;8197;51.664;7.114;2024-03-02T05:23:04;14.77;;;1.27;;
16181;SDS011;8197;51.664;7.114;2024-03-02T05:28:08;12.77;;;1.27;;
16181;SDS011;8197;51.664;7.114;2024-03-02T05:33:11;12.60;;;1.30;;
16181;SDS011;8197;51.664;7.114;2024-03-02T05:38:14;12.70;;;1.20;;
16181;SDS011;8197;51.664;7.114;2024-03-02T05:43:18;14.00;;;1.50;;
16181;SDS011;8197;51.664;7.114;2024-03-02T05:48:21;14.00;;;1.50;;
16181;SDS011;8197;51.664;7.114;2024-03-02T05:53:24;14.70;;;2.00;;
16181;SDS011;8197;51.664;7.114;2024-03-02T05:58:28;15.57;;;1.60;;
16181;SDS011;8197;51.664;7.114;2024-03-02T06:03:44;18.70;;;1.90;;
16181;SDS011;8197;51.664;7.114;2024-03-02T06:08:47;14.57;;;1.70;;
16181;SDS011;8197;51.664;7.114;2024-03-02T06:13:51;11.80;;;1.27;;
16181;SDS011;8197;51.664;7.114;2024-03-02T06:18:54;13.77;;;1.70;;
16181;SDS011;8197;51.664;7.114;2024-03-02T06:23:59;15.47;;;2.10;;
16181;SDS011;8197;51.664;7.114;2024-03-02T06:29:03;14.57;;;2.00;;
16181;SDS011;8197;51.664;7.114;2024-03-02T06:34:06;14.07;;;1.50;;
16181;SDS011;8197;51.664;7.114;2024-03-02T06:39:10;12.43;;;1.30;;
16181;SDS011;8197;51.664;7.114;2024-03-02T06:44:15;12.90;;;1.60;;
16181;SDS011;8197;51.664;7.114;2024-03-02T06:49:18;12.20;;;1.60;;
16181;SDS011;8197;51.664;7.114;2024-03-02T06:54:20;14.93;;;2.07;;
16181;SDS011;8197;51.664;7.114;2024-03-02T06:59:25;13.07;;;1.90;;
16181;SDS011;8197;51.664;7.114;2024-03-02T07:04:28;13.80;;;1.87;;
16181;SDS011;8197;51.664;7.114;2024-03-02T07:09:31;12.97;;;1.40;;
16181;SDS011;8197;51.664;7.114;2024-03-02T07:14:35;13.07;;;1.80;;
16181;SDS011;8197;51.664;7.114;2024-03-02T07:20:12;13.07;;;2.10;;
16181;SDS011;8197;51.664;7.114;2024-03-02T07:25:15;15.27;;;2.30;;
16181;SDS011;8197;51.664;7.114;2024-03-02T07:30:22;14.87;;;2.10;;
16181;SDS011;8197;51.664;7.114;2024-03-02T07:35:25;15.20;;;2.43;;
16181;SDS011;8197;51.664;7.114;2024-03-02T07:40:29;15.50;;;2.20;;
16181;SDS011;8197;51.664;7.114;2024-03-02T07:45:33;18.20;;;3.87;;
16181;SDS011;8197;51.664;7.114;2024-03-02T07:50:37;17.20;;;2.40;;
16181;SDS011;8197;51.664;7.114;2024-03-02T07:55:40;15.27;;;2.70;;
16181;SDS011;8197;51.664;7.114;2024-03-02T08:00:45;18.30;;;2.77;;
16181;SDS011;8197;51.664;7.114;2024-03-02T08:05:48;20.20;;;2.50;;
16181;SDS011;8197;51.664;7.114;2024-03-02T08:10:51;21.73;;;2.33;;
16181;SDS011;8197;51.664;7.114;2024-03-02T08:15:55;15.20;;;2.77;;
16181;SDS011;8197;51.664;7.114;2024-03-02T08:20:59;17.30;;;2.50;;
16181;SDS011;8197;51.664;7.114;2024-03-02T08:26:02;14.83;;;2.10;;
16181;SDS011;8197;51.664;7.114;2024-03-02T08:31:07;16.20;;;2.30;;
16181;SDS011;8197;51.664;7.114;2024-03-02T08:36:10;13.93;;;2.23;;
16181;SDS011;8197;51.664;7.114;2024-03-02T08:41:14;14.10;;;2.10;;
16181;SDS011;8197;51.664;7.114;2024-03-02T08:46:18;14.10;;;1.97;;
16181;SDS011;8197;51.664;7.114;2024-03-02T08:51:22;15.60;;;2.27;;
16181;SDS011;8197;51.664;7.114;2024-03-02T08:56:25;13.70;;;2.00;;
16181;SDS011;8197;51.664;7.114;2024-03-02T09:01:29;16.70;;;2.13;;
16181;SDS011;8197;51.664;7.114;2024-03-02T09:06:33;16.30;;;2.10;;
16181;SDS011;8197;51.664;7.114;2024-03-02T09:11:39;13.70;;;2.13;;
16181;SDS011;8197;51.664;7.114;2024-03-02T09:16:43;16.70;;;1.90;;
16181;SDS011;8197;51.664;7.114;2024-03-02T09:21:49;16.50;;;1.70;;
16181;SDS011;8197;51.664;7.114;2024-03-02T09:26:52;17.27;;;1.87;;
16181;SDS011;8197;51.664;7.114;2024-03-02T09:31:57;14.87;;;1.97;;
16181;SDS011;8197;51.664;7.114;2024-03-02T09:37:00;13.43;;;1.73;;
16181;SDS011;8197;51.664;7.114;2024-03-02T09:42:03;14.93;;;1.47;;
16181;SDS011;8197;51.664;7.114;2024-03-02T09:47:09;13.87;;;1.70;;
16181;SDS011;8197;51.664;7.114;2024-03-02T09:52:11;13.40;;;1.27;;
16181;SDS011;8197;51.664;7.114;2024-03-02T09:57:16;14.17;;;1.70;;
16181;SDS011;8197;51.664;7.114;2024-03-02T10:02:20;13.37;;;1.43;;
16181;SDS011;8197;51.664;7.114;2024-03-02T10:07:23;15.80;;;2.00;;
16181;SDS011;8197;51.664;7.114;2024-03-02T10:12:26;12.50;;;1.20;;
16181;SDS011;8197;51.664;7.114;2024-03-02T10:17:30;14.93;;;1.40;;
16181;SDS011;8197;51.664;7.114;2024-03-02T10:22:34;16.23;;;1.67;;
16181;SDS011;8197;51.664;7.114;2024-03-02T10:27:36;13.00;;;1.50;;
16181;SDS011;8197;51.664;7.114;2024-03-02T10:32:41;15.40;;;1.47;;
16181;SDS011;8197;51.664;7.114;2024-03-02T10:37:44;14.50;;;1.47;;
16181;SDS011;8197;51.664;7.114;2024-03-02T10:42:47;15.80;;;1.33;;
16181;SDS011;8197;51.664;7.114;2024-03-02T10:47:53;14.60;;;1.70;;
16181;SDS011;8197;51.664;7.114;2024-03-02T10:52:56;19.57;;;2.00;;
16181;SDS011;8197;51.664;7.114;2024-03-02T10:57:59;13.50;;;1.50;;
16181;SDS011;8197;51.664;7.114;2024-03-02T11:03:10;14.00;;;1.13;;
16181;SDS011;8197;51.664;7.114;2024-03-02T11:08:18;16.67;;;1.60;;
16181;SDS011;8197;51.664;7.114;2024-03-02T11:13:23;15.40;;;1.47;;
16181;SDS011;8197;51.664;7.114;2024-03-02T11:18:34;13.90;;;1.63;;
16181;SDS011;8197;51.664;7.114;2024-03-02T11:23:38;15.63;;;1.60;;
16181;SDS011;8197;51.664;7.114;2024-03-02T11:28:41;13.30;;;1.60;;
16181;SDS011;8197;51.664;7.114;2024-03-02T11:33:45;13.90;;;1.30;;
16181;SDS011;8197;51.664;7.114;2024-03-02T11:38:48;15.10;;;1.43;;
16181;SDS011;8197;51.664;7.114;2024-03-02T11:43:54;15.83;;;1.27;;
16181;SDS011;8197;51.664;7.114;2024-03-02T11:48:59;15.53;;;2.03;;
16181;SDS011;8197;51.664;7.114;2024-03-02T11:54:02;14.90;;;1.37;;
16181;SDS011;8197;51.664;7.114;2024-03-02T11:59:06;15.40;;;1.50;;
16181;SDS011;8197;51.664;7.114;2024-03-02T12:04:11;16.83;;;1.80;;
16181;SDS011;8197;51.664;7.114;2024-03-02T12:09:17;15.30;;;1.50;;
16181;SDS011;8197;51.664;7.114;2024-03-02T12:14:20;16.77;;;1.67;;
16181;SDS011;8197;51.664;7.114;2024-03-02T12:19:25;14.93;;;1.30;;
16181;SDS011;8197;51.664;7.114;2024-03-02T12:24:30;15.67;;;1.10;;
16181;SDS011;8197;51.664;7.114;2024-03-02T12:29:33;14.37;;;1.30;;
16181;SDS011;8197;51.664;7.114;2024-03-02T12:34:42;15.47;;;1.40;;
16181;SDS011;8197;51.664;7.114;2024-03-02T12:39:49;13.40;;;1.00;;
16181;SDS011;8197;51.664;7.114;2024-03-02T12:44:52;13.60;;;1.37;;
16181;SDS011;8197;51.664;7.114;2024-03-02T12:49:57;13.50;;;1.40;;
16181;SDS011;8197;51.664;7.114;2024-03-02T12:55:02;14.07;;;1.27;;
16181;SDS011;8197;51.664;7.114;2024-03-02T13:00:07;14.70;;;1.60;;
16181;SDS011;8197;51.664;7.114;2024-03-02T13:05:12;16.57;;;1.40;;
16181;SDS011;8197;51.664;7.114;2024-03-02T13:10:15;15.00;;;1.27;;
16181;SDS011;8197;51.664;7.114;2024-03-02T13:15:21;14.27;;;1.40;;
16181;SDS011;8197;51.664;7.114;2024-03-02T13:20:25;18.13;;;1.60;;
16181;SDS011;8197;51.664;7.114;2024-03-02T13:25:33;13.07;;;1.30;;
16181;SDS011;8197;51.664;7.114;2024-03-02T13:30:36;13.40;;;1.50;;
16181;SDS011;8197;51.664;7.114;2024-03-02T13:35:41;16.17;;;1.27;;
16181;SDS011;8197;51.664;7.114;2024-03-02T13:40:47;14.47;;;1.20;;
16181;SDS011;8197;51.664;7.114;2024-03-02T13:45:53;13.87;;;1.30;;
16181;SDS011;8197;51.664;7.114;2024-03-02T13:50:57;15.83;;;1.30;;
16181;SDS011;8197;51.664;7.114;2024-03-02T13:56:00;13.70;;;1.40;;
16181;SDS011;8197;51.664;7.114;2024-03-02T14:01:04;15.03;;;1.40;;
16181;SDS011;8197;51.664;7.114;2024-03-02T14:06:09;13.40;;;1.23;;
16181;SDS011;8197;51.664;7.114;2024-03-02T14:11:13;15.23;;;1.90;;
16181;SDS011;8197;51.664;7.114;2024-03-02T14:16:17;16.27;;;2.70;;
16181;SDS011;8197;51.664;7.114;2024-03-02T14:21:21;18.20;;;1.77;;
16181;SDS011;8197;51.664;7.114;2024-03-02T14:26:24;13.47;;;1.33;;
16181;SDS011;8197;51.664;7.114;2024-03-02T14:31:29;13.20;;;0.90;;
16181;SDS011;8197;51.664;7.114;2024-03-02T14:36:33;13.53;;;1.23;;
16181;SDS011;8197;51.664;7.114;2024-03-02T14:41:36;16.07;;;1.57;;
16181;SDS011;8197;51.664;7.114;2024-03-02T14:46:40;13.60;;;1.50;;
16181;SDS011;8197;51.664;7.114;2024-03-02T14:51:47;12.57;;;1.10;;
16181;SDS011;8197;51.664;7.114;2024-03-02T14:56:50;13.23;;;1.37;;
16181;SDS011;8197;51.664;7.114;2024-03-02T15:01:53;13.10;;;1.30;;
16181;SDS011;8197;51.664;7.114;2024-03-02T15:06:58;21.73;;;4.93;;
16181;SDS011;8197;51.664;7.114;2024-03-02T15:12:01;16.33;;;2.80;;
16181;SDS011;8197;51.664;7.114;2024-03-02T15:17:04;17.90;;;3.73;;
16181;SDS011;8197;51.664;7.114;2024-03-02T15:22:09;29.20;;;3.83;;
16181;SDS011;8197;51.664;7.114;2024-03-02T15:27:12;18.20;;;3.10;;
16181;SDS011;8197;51.664;7.114;2024-03-02T15:32:15;35.90;;;10.87;;
16181;SDS011;8197;51.664;7.114;2024-03-02T15:37:20;23.00;;;4.90;;
16181;SDS011;8197;51.664;7.114;2024-03-02T15:42:23;15.80;;;2.30;;
16181;SDS011;8197;51.664;7.114;2024-03-02T15:47:27;22.10;;;6.17;;
16181;SDS011;8197;51.664;7.114;2024-03-02T15:52:31;28.93;;;6.90;;
16181;SDS011;8197;51.664;7.114;2024-03-02T15:57:34;41.90;;;13.47;;
16181;SDS011;8197;51.664;7.114;2024-03-02T16:02:38;103.33;;;31.43;;
16181;SDS011;8197;51.664;7.114;2024-03-02T16:07:44;46.70;;;16.40;;
16181;SDS011;8197;51.664;7.114;2024-03-02T16:12:47;25.80;;;6.80;;
16181;SDS011;8197;51.664;7.114;2024-03-02T16:17:50;30.80;;;9.33;;
16181;SDS011;8197;51.664;7.114;2024-03-02T16:22:54;26.00;;;6.90;;
16181;SDS011;8197;51.664;7.114;2024-03-02T16:27:57;28.93;;;6.53;;
16181;SDS011;8197;51.664;7.114;2024-03-02T16:33:02;19.27;;;4.13;;
16181;SDS011;8197;51.664;7.114;2024-03-02T16:38:07;22.30;;;4.20;;
16181;SDS011;8197;51.664;7.114;2024-03-02T16:43:11;22.53;;;4.83;;
16181;SDS011;8197;51.664;7.114;2024-03-02T16:48:14;26.97;;;6.27;;
16181;SDS011;8197;51.664;7.114;2024-03-02T16:53:20;33.97;;;12.00;;
16181;SDS011;8197;51.664;7.114;2024-03-02T16:58:24;21.50;;;4.47;;
16181;SDS011;8197;51.664;7.114;2024-03-02T17:03:27;18.63;;;3.60;;
16181;SDS011;8197;51.664;7.114;2024-03-02T17:08:31;18.33;;;3.80;;
16181;SDS011;8197;51.664;7.114;2024-03-02T17:13:34;16.20;;;2.73;;
16181;SDS011;8197;51.664;7.114;2024-03-02T17:18:40;17.07;;;3.40;;
16181;SDS011;8197;51.664;7.114;2024-03-02T17:23:44;16.23;;;3.90;;
16181;SDS011;8197;51.664;7.114;2024-03-02T17:28:47;16.83;;;4.20;;
16181;SDS011;8197;51.664;7.114;2024-03-02T17:33:50;26.90;;;6.87;;
16181;SDS011;8197;51.664;7.114;2024-03-02T17:38:55;27.17;;;7.17;;
16181;SDS011;8197;51.664;7.114;2024-03-02T17:43:59;21.53;;;5.10;;
16181;SDS011;8197;51.664;7.114;2024-03-02T17:49:02;45.03;;;13.33;;
16181;SDS011;8197;51.664;7.114;2024-03-02T17:54:06;37.27;;;11.60;;
16181;SDS011;8197;51.664;7.114;2024-03-02T17:59:09;25.70;;;7.10;;
16181;SDS011;8197;51.664;7.114;2024-03-02T18:04:12;23.20;;;5.10;;
16181;SDS011;8197;51.664;7.114;2024-03-02T18:09:17;21.27;;;5.67;;
16181;SDS011;8197;51.664;7.114;2024-03-02T18:14:20;24.80;;;6.77;;
16181;SDS011;8197;51.664;7.114;2024-03-02T18:19:23;18.60;;;4.67;;
16181;SDS011;8197;51.664;7.114;2024-03-02T18:24:27;16.80;;;2.87;;
16181;SDS011;8197;51.664;7.114;2024-03-02T18:29:30;27.60;;;6.37;;
16181;SDS011;8197;51.664;7.114;2024-03-02T18:34:33;20.67;;;4.70;;
16181;SDS011;8197;51.664;7.114;2024-03-02T18:39:41;24.07;;;6.57;;
16181;SDS011;8197;51.664;7.114;2024-03-02T18:44:45;26.93;;;7.00;;
16181;SDS011;8197;51.664;7.114;2024-03-02T18:49:48;20.67;;;4.07;;
16181;SDS011;8197;51.664;7.114;2024-03-02T18:54:52;13.90;;;2.03;;
16181;SDS011;8197;51.664;7.114;2024-03-02T18:59:58;13.97;;;1.90;;
16181;SDS011;8197;51.664;7.114;2024-03-02T19:05:01;17.50;;;1.87;;
16181;SDS011;8197;51.664;7.114;2024-03-02T19:10:07;17.50;;;4.20;;
16181;SDS011;8197;51.664;7.114;2024-03-02T19:15:12;13.70;;;2.00;;
16181;SDS011;8197;51.664;7.114;2024-03-02T19:20:15;14.80;;;2.33;;
16181;SDS011;8197;51.664;7.114;2024-03-02T19:25:19;14.07;;;1.70;;
16181;SDS011;8197;51.664;7.114;2024-03-02T19:30:22;17.13;;;2.93;;
16181;SDS011;8197;51.664;7.114;2024-03-02T19:35:26;18.37;;;3.67;;
16181;SDS011;8197;51.664;7.114;2024-03-02T19:40:31;17.10;;;2.80;;
16181;SDS011;8197;51.664;7.114;2024-03-02T19:45:34;17.43;;;2.93;;
16181;SDS011;8197;51.664;7.114;2024-03-02T19:50:37;17.87;;;2.80;;
16181;SDS011;8197;51.664;7.114;2024-03-02T19:55:42;15.10;;;2.43;;
16181;SDS011;8197;51.664;7.114;2024-03-02T20:00:47;26.37;;;5.73;;
16181;SDS011;8197;51.664;7.114;2024-03-02T20:05:50;17.90;;;3.30;;
16181;SDS011;8197;51.664;7.114;2024-03-02T20:10:55;14.43;;;2.20;;
16181;SDS011;8197;51.664;7.114;2024-03-02T20:15:58;17.20;;;3.63;;
16181;SDS011;8197;51.664;7.114;2024-03-02T20:21:01;15.50;;;2.47;;
16181;SDS011;8197;51.664;7.114;2024-03-02T20:26:06;19.90;;;5.00;;
16181;SDS011;8197;51.664;7.114;2024-03-02T20:31:09;18.07;;;4.53;;
16181;SDS011;8197;51.664;7.114;2024-03-02T20:36:12;17.63;;;4.10;;
16181;SDS011;8197;51.664;7.114;2024-03-02T20:41:17;17.67;;;3.77;;
16181;SDS011;8197;51.664;7.114;2024-03-02T20:46:20;19.17;;;4.27;;
16181;SDS011;8197;51.664;7.114;2024-03-02T20:51:23;16.80;;;3.10;;
16181;SDS011;8197;51.664;7.114;2024-03-02T20:56:31;16.10;;;2.90;;
16181;SDS011;8197;51.664;7.114;2024-03-02T21:01:39;16.00;;;2.30;;
16181;SDS011;8197;51.664;7.114;2024-03-02T21:06:45;16.70;;;2.70;;
16181;SDS011;8197;51.664;7.114;2024-03-02T21:11:49;14.10;;;2.27;;
16181;SDS011;8197;51.664;7.114;2024-03-02T21:16:52;18.50;;;3.70;;
16181;SDS011;8197;51.664;7.114;2024-03-02T21:21:55;17.10;;;3.50;;
16181;SDS011;8197;51.664;7.114;2024-03-02T21:27:01;14.43;;;2.53;;
16181;SDS011;8197;51.664;7.114;2024-03-02T21:32:04;15.27;;;3.30;;
16181;SDS011;8197;51.664;7.114;2024-03-02T21:37:07;20.33;;;5.73;;
16181;SDS011;8197;51.664;7.114;2024-03-02T21:42:12;29.20;;;6.43;;
16181;SDS011;8197;51.664;7.114;2024-03-02T21:47:15;17.50;;;4.00;;
16181;SDS011;8197;51.664;7.114;2024-03-02T21:52:20;17.13;;;3.87;;
16181;SDS011;8197;51.664;7.114;2024-03-02T21:57:24;15.90;;;3.50;;
16181;SDS011;8197;51.664;7.114;2024-03-02T22:02:27;17.00;;;3.40;;
16181;SDS011;8197;51.664;7.114;2024-03-02T22:07:29;17.83;;;5.07;;
16181;SDS011;8197;51.664;7.114;2024-03-02T22:12:34;17.70;;;4.40;;
16181;SDS011;8197;51.664;7.114;2024-03-02T22:17:37;25.50;;;4.00;;
16181;SDS011;8197;51.664;7.114;2024-03-02T22:22:40;18.47;;;4.33;;
16181;SDS011;8197;51.664;7.114;2024-03-02T22:27:46;18.00;;;4.20;;
16181;SDS011;8197;51.664;7.114;2024-03-02T22:32:56;15.83;;;3.30;;
16181;SDS011;8197;51.664;7.114;2024-03-02T22:37:59;17.63;;;4.00;;
16181;SDS011;8197;51.664;7.114;2024-03-02T22:43:03;46.80;;;3.80;;
16181;SDS011;8197;51.664;7.114;2024-03-02T22:48:07;18.83;;;3.70;;
16181;SDS011;8197;51.664;7.114;2024-03-02T22:53:10;16.80;;;3.50;;
16181;SDS011;8197;51.664;7.114;2024-03-02T22:58:14;16.07;;;3.30;;
16181;SDS011;8197;51.664;7.114;2024-03-02T23:03:18;18.43;;;3.93;;
16181;SDS011;8197;51.664;7.114;2024-03-02T23:08:21;17.63;;;3.80;;
16181;SDS011;8197;51.664;7.114;2024-03-02T23:13:25;17.43;;;3.73;;
16181;SDS011;8197;51.664;7.114;2024-03-02T23:18:28;22.20;;;4.00;;
16181;SDS011;8197;51.664;7.114;2024-03-02T23:23:31;17.20;;;4.13;;
16181;SDS011;8197;51.664;7.114;2024-03-02T23:28:38;17.20;;;3.83;;
16181;SDS011;8197;51.664;7.114;2024-03-02T23:33:41;18.33;;;4.30;;
16181;SDS011;8197;51.664;7.114;2024-03-02T23:38:44;18.70;;;4.30;;
16181;SDS011;8197;51.664;7.114;2024-03-02T23:43:48;17.70;;;4.37;;
16181;SDS011;8197;51.664;7.114;2024-03-02T23:48:51;16.10;;;3.60;;
16181;SDS011;8197;51.664;7.114;2024-03-02T23:53:54;24.70;;;5.30;;
16181;SDS011;8197;51.664;7.114;2024-03-02T23:58:59;18.87;;;4.70;;
